Time;durP1;ratioP1;P1;durP2;ratioP2;P2;SDS_P1;SDS_P2;PMS_P1;PMS_P2;Temp;Humidity;BMP_temperature;BMP_pressure;BME280_temperature;BME280_humidity;BME280_pressure;Samples;Min_cycle;Max_cycle;Signal;HPM_P1;HPM_P2
2022/03/02 00:00:58;;;;;;;25.05;20.23;;;7.80;99.90;;;;;;4962557;28;20411;-64
2022/03/02 00:03:25;;;;;;;26.75;21.08;;;7.80;99.90;;;;;;4982855;28;20051;-64
2022/03/02 00:05:52;;;;;;;24.02;20.40;;;7.80;99.90;;;;;;4981942;28;20047;-64
2022/03/02 00:08:20;;;;;;;24.17;19.70;;;7.80;99.90;;;;;;4952141;28;20048;-65
2022/03/02 00:10:47;;;;;;;28.45;21.42;;;7.80;99.90;;;;;;4953926;28;20071;-63
2022/03/02 00:13:14;;;;;;;25.20;20.95;;;7.80;99.90;;;;;;4983441;28;20054;-63
2022/03/02 00:15:41;;;;;;;27.13;21.35;;;7.80;99.90;;;;;;4964078;28;20059;-64
2022/03/02 00:18:08;;;;;;;26.02;21.27;;;7.90;99.90;;;;;;4983264;28;20081;-63
2022/03/02 00:20:36;;;;;;;28.45;22.45;;;7.90;99.90;;;;;;4952677;28;20073;-73
2022/03/02 00:23:03;;;;;;;26.02;20.77;;;7.90;99.90;;;;;;4941562;29;20052;-63
2022/03/02 00:25:30;;;;;;;26.75;21.15;;;7.90;99.90;;;;;;4953696;28;20047;-63
2022/03/02 00:27:57;;;;;;;29.35;23.00;;;7.90;99.90;;;;;;4954276;28;20051;-65
2022/03/02 00:30:28;;;;;;;30.80;24.55;;;7.90;99.90;;;;;;4954741;28;20051;-64
2022/03/02 00:32:55;;;;;;;28.75;22.73;;;7.90;99.90;;;;;;4960606;28;20047;-63
2022/03/02 00:35:22;;;;;;;33.50;24.80;;;7.90;99.90;;;;;;4946835;29;20062;-63
2022/03/02 00:37:49;;;;;;;29.45;24.35;;;7.90;99.90;;;;;;4969887;28;20055;-63
2022/03/02 00:40:16;;;;;;;32.63;26.88;;;7.90;99.90;;;;;;4986927;28;20063;-65
2022/03/02 00:42:44;;;;;;;35.33;26.65;;;7.80;99.90;;;;;;4939794;28;20487;-63
2022/03/02 00:45:11;;;;;;;39.42;28.27;;;7.80;99.90;;;;;;4956529;28;20051;-62
2022/03/02 00:47:39;;;;;;;38.33;30.33;;;7.70;99.90;;;;;;4950429;29;20075;-63
2022/03/02 00:50:07;;;;;;;39.15;30.10;;;7.70;99.90;;;;;;4969179;28;20047;-64
2022/03/02 00:52:34;;;;;;;40.05;30.17;;;7.70;99.90;;;;;;4961341;28;20047;-63
2022/03/02 00:55:03;;;;;;;41.70;31.17;;;7.70;99.90;;;;;;4961139;28;20043;-66
2022/03/02 00:57:30;;;;;;;44.87;32.43;;;7.70;99.90;;;;;;4955367;28;20043;-63
2022/03/02 00:59:57;;;;;;;41.53;31.65;;;7.60;99.90;;;;;;4963637;28;20118;-64
2022/03/02 01:02:24;;;;;;;42.13;31.20;;;7.60;99.90;;;;;;4969869;28;20051;-64
2022/03/02 01:04:51;;;;;;;44.38;33.55;;;7.60;99.90;;;;;;4946254;28;20047;-63
2022/03/02 01:07:18;;;;;;;43.50;32.58;;;7.50;99.90;;;;;;4973498;28;20049;-63
2022/03/02 01:09:45;;;;;;;44.15;31.52;;;7.50;99.90;;;;;;4974704;28;20055;-63
2022/03/02 01:12:12;;;;;;;44.42;32.33;;;7.50;99.90;;;;;;4961645;28;20487;-62
2022/03/02 01:14:39;;;;;;;45.60;33.10;;;7.50;99.90;;;;;;4956523;28;20090;-64
2022/03/02 01:17:06;;;;;;;47.92;34.38;;;7.50;99.90;;;;;;4959449;28;20096;-63
2022/03/02 01:19:33;;;;;;;48.90;34.88;;;7.40;99.90;;;;;;4971004;28;20054;-63
2022/03/02 01:22:00;;;;;;;51.10;34.13;;;7.40;99.90;;;;;;4956253;28;20142;-63
2022/03/02 01:24:27;;;;;;;50.58;33.40;;;7.40;99.90;;;;;;4952934;28;20426;-63
2022/03/02 01:26:54;;;;;;;46.17;33.47;;;7.40;99.90;;;;;;4985871;28;20095;-63
2022/03/02 01:29:23;;;;;;;43.53;31.77;;;7.40;99.90;;;;;;4955442;28;20130;-63
2022/03/02 01:31:50;;;;;;;47.45;33.25;;;7.40;99.90;;;;;;4984516;28;20485;-62
2022/03/02 01:34:17;;;;;;;47.38;30.40;;;7.30;99.90;;;;;;4985128;28;20039;-67
2022/03/02 01:36:43;;;;;;;45.75;32.13;;;7.30;99.90;;;;;;4961419;28;20051;-62
2022/03/02 01:39:10;;;;;;;47.38;32.83;;;7.30;99.90;;;;;;4956855;28;20050;-63
2022/03/02 01:41:38;;;;;;;48.53;33.53;;;7.30;99.90;;;;;;4966972;28;20082;-63
2022/03/02 01:44:05;;;;;;;45.47;30.40;;;7.20;99.90;;;;;;4962767;28;20744;-63
2022/03/02 01:46:32;;;;;;;44.38;30.58;;;7.30;99.90;;;;;;4985245;28;20075;-62
2022/03/02 01:48:59;;;;;;;45.75;33.63;;;7.30;99.90;;;;;;4972117;28;20039;-63
2022/03/02 01:51:26;;;;;;;45.63;33.35;;;7.20;99.90;;;;;;4971741;28;20039;-62
2022/03/02 01:53:53;;;;;;;48.95;35.80;;;7.20;99.90;;;;;;4943068;28;20388;-62
2022/03/02 01:56:20;;;;;;;45.85;33.00;;;7.20;99.90;;;;;;4955704;28;20047;-63
2022/03/02 01:58:47;;;;;;;47.17;32.65;;;7.20;99.90;;;;;;4960211;28;20046;-64
2022/03/02 02:01:14;;;;;;;43.88;32.33;;;7.20;99.90;;;;;;4971358;28;20059;-63
2022/03/02 02:03:41;;;;;;;47.60;32.90;;;7.20;99.90;;;;;;4965783;28;20107;-62
2022/03/02 02:06:08;;;;;;;44.40;30.77;;;7.20;99.90;;;;;;4985067;28;20058;-63
2022/03/02 02:08:39;;;;;;;44.13;30.73;;;7.20;99.90;;;;;;4983413;28;20047;-66
2022/03/02 02:11:06;;;;;;;43.78;30.77;;;7.10;99.90;;;;;;4953454;28;20051;-62
2022/03/02 02:13:34;;;;;;;43.85;29.45;;;7.10;99.90;;;;;;4952917;28;20051;-64
2022/03/02 02:16:02;;;;;;;38.58;28.50;;;7.10;99.90;;;;;;4955601;28;20051;-63
2022/03/02 02:18:29;;;;;;;39.88;28.85;;;7.10;99.90;;;;;;4969537;28;20558;-63
2022/03/02 02:21:07;;;;;;;44.65;32.03;;;7.10;99.90;;;;;;4962154;28;20058;-63
2022/03/02 02:23:35;;;;;;;46.35;31.38;;;7.10;99.90;;;;;;4943626;28;20059;-64
2022/03/02 02:26:03;;;;;;;48.05;30.35;;;7.10;99.90;;;;;;4968932;28;20055;-66
2022/03/02 02:28:30;;;;;;;40.20;27.88;;;7.10;99.90;;;;;;4953110;28;20130;-64
2022/03/02 02:30:58;;;;;;;47.70;28.90;;;7.00;99.90;;;;;;4955214;28;20058;-62
2022/03/02 02:33:25;;;;;;;40.08;29.23;;;7.00;99.90;;;;;;4954826;28;20057;-63
2022/03/02 02:35:52;;;;;;;39.25;28.98;;;7.10;99.90;;;;;;4955553;28;20051;-62
2022/03/02 02:38:21;;;;;;;45.55;31.42;;;7.10;99.90;;;;;;4985395;28;20058;-63
2022/03/02 02:40:49;;;;;;;43.03;30.00;;;7.10;99.90;;;;;;4959956;28;20061;-66
2022/03/02 02:43:17;;;;;;;45.80;30.52;;;7.00;99.90;;;;;;4954354;28;20044;-65
2022/03/02 02:45:44;;;;;;;45.40;31.17;;;7.00;99.90;;;;;;4957154;28;20399;-64
2022/03/02 02:48:11;;;;;;;41.33;29.60;;;7.00;99.90;;;;;;4971301;28;20507;-64
2022/03/02 02:50:38;;;;;;;48.67;32.03;;;7.00;99.90;;;;;;4969996;28;20047;-64
2022/03/02 02:53:09;;;;;;;41.30;29.55;;;7.00;99.90;;;;;;4967745;28;20518;-64
2022/03/02 02:55:38;;;;;;;41.53;29.98;;;7.00;99.90;;;;;;4984138;28;20055;-65
2022/03/02 02:58:05;;;;;;;45.28;29.92;;;7.00;99.90;;;;;;4968535;28;20047;-66
2022/03/02 03:00:34;;;;;;;48.70;30.05;;;7.00;99.90;;;;;;4984436;28;20047;-64
2022/03/02 03:03:01;;;;;;;41.20;27.13;;;7.00;99.90;;;;;;4952457;28;20047;-64
2022/03/02 03:05:30;;;;;;;42.80;30.05;;;7.00;99.90;;;;;;4966331;28;20055;-67
2022/03/02 03:07:57;;;;;;;42.47;28.17;;;7.00;99.90;;;;;;4972020;28;20050;-64
2022/03/02 03:10:25;;;;;;;41.75;27.65;;;7.00;99.90;;;;;;4968536;28;20415;-64
2022/03/02 03:12:52;;;;;;;45.25;29.38;;;7.00;99.90;;;;;;4959943;28;20458;-64
2022/03/02 03:15:20;;;;;;;42.78;28.15;;;7.00;99.90;;;;;;4956960;28;20047;-64
2022/03/02 03:17:47;;;;;;;42.38;29.40;;;7.00;99.90;;;;;;4954442;28;20051;-66
2022/03/02 03:20:17;;;;;;;47.22;30.05;;;6.90;99.90;;;;;;4958410;28;20043;-64
2022/03/02 03:22:44;;;;;;;40.97;28.02;;;7.00;99.90;;;;;;4983747;28;20078;-64
2022/03/02 03:25:12;;;;;;;41.88;29.85;;;7.00;99.90;;;;;;4953642;28;20051;-64
2022/03/02 03:27:40;;;;;;;42.08;29.58;;;7.00;99.90;;;;;;4983178;28;20086;-64
2022/03/02 03:30:08;;;;;;;42.10;29.00;;;7.00;99.90;;;;;;4959720;28;20098;-65
2022/03/02 03:32:35;;;;;;;42.00;28.95;;;6.90;99.90;;;;;;4954413;28;20051;-64
2022/03/02 03:35:03;;;;;;;39.88;28.00;;;6.90;99.90;;;;;;4967681;28;20089;-64
2022/03/02 03:37:30;;;;;;;42.70;28.13;;;7.00;99.90;;;;;;4970300;28;20057;-65
2022/03/02 03:39:57;;;;;;;39.75;27.02;;;7.00;99.90;;;;;;4954684;28;20047;-64
2022/03/02 03:42:24;;;;;;;41.08;27.38;;;7.00;99.90;;;;;;4954555;28;20050;-64
2022/03/02 03:44:51;;;;;;;43.50;29.75;;;7.00;99.90;;;;;;4960940;28;20087;-64
2022/03/02 03:47:18;;;;;;;38.15;28.27;;;7.00;99.90;;;;;;4970805;28;20053;-64
2022/03/02 03:49:45;;;;;;;41.15;28.08;;;7.00;99.90;;;;;;4970945;28;20458;-64
2022/03/02 03:52:12;;;;;;;41.03;29.77;;;7.00;99.90;;;;;;4970497;28;20050;-65
2022/03/02 03:54:39;;;;;;;39.35;29.42;;;7.00;99.90;;;;;;4960188;28;20061;-64
2022/03/02 03:57:06;;;;;;;44.67;30.90;;;7.00;99.90;;;;;;4968828;28;20391;-65
2022/03/02 03:59:33;;;;;;;43.95;29.65;;;7.00;99.90;;;;;;4957376;28;20043;-66
2022/03/02 04:02:00;;;;;;;44.28;30.20;;;6.90;99.90;;;;;;4966147;28;20484;-64
2022/03/02 04:04:27;;;;;;;38.97;27.52;;;6.90;99.90;;;;;;4963291;28;20074;-65
2022/03/02 04:06:54;;;;;;;37.80;28.23;;;6.90;99.90;;;;;;4940039;29;20055;-64
2022/03/02 04:09:21;;;;;;;37.22;27.95;;;6.90;99.90;;;;;;4987204;28;20058;-65
2022/03/02 04:11:48;;;;;;;37.92;26.88;;;6.90;99.90;;;;;;4958028;28;20058;-64
2022/03/02 04:14:14;;;;;;;40.58;29.15;;;6.90;99.90;;;;;;4968171;28;20043;-64
2022/03/02 04:16:41;;;;;;;42.22;28.65;;;6.90;99.90;;;;;;4968454;28;20066;-64
2022/03/02 04:19:08;;;;;;;44.10;27.10;;;6.90;99.90;;;;;;4957731;28;20078;-64
2022/03/02 04:21:36;;;;;;;39.45;28.77;;;6.90;99.90;;;;;;4972287;28;20038;-65
2022/03/02 04:24:03;;;;;;;46.58;30.17;;;6.90;99.90;;;;;;4955609;28;20047;-64
2022/03/02 04:26:30;;;;;;;41.15;28.88;;;6.90;99.90;;;;;;4957772;28;20077;-65
2022/03/02 04:28:56;;;;;;;40.70;28.60;;;6.90;99.90;;;;;;4987072;28;20042;-65
2022/03/02 04:31:23;;;;;;;43.22;30.85;;;6.90;99.90;;;;;;4959716;28;20047;-65
2022/03/02 04:33:50;;;;;;;39.58;28.45;;;6.90;99.90;;;;;;4944553;29;20043;-64
2022/03/02 04:36:17;;;;;;;42.83;28.63;;;6.90;99.90;;;;;;4986971;28;20047;-65
2022/03/02 04:38:44;;;;;;;39.50;27.15;;;6.90;99.90;;;;;;4956608;28;20047;-64
2022/03/02 04:41:11;;;;;;;43.78;31.77;;;6.90;99.90;;;;;;4956127;28;20055;-66
2022/03/02 04:43:38;;;;;;;41.72;29.27;;;6.90;99.90;;;;;;4966910;28;20083;-65
2022/03/02 04:46:05;;;;;;;42.35;30.17;;;6.90;99.90;;;;;;4959998;28;20126;-64
2022/03/02 04:48:32;;;;;;;39.47;27.90;;;6.90;99.90;;;;;;4944248;28;20043;-64
2022/03/02 04:50:59;;;;;;;45.10;30.40;;;6.90;99.90;;;;;;4986806;28;20051;-66
2022/03/02 04:53:26;;;;;;;42.40;28.92;;;6.90;99.90;;;;;;4966364;28;20410;-66
2022/03/02 04:55:53;;;;;;;44.63;29.25;;;6.90;99.90;;;;;;4956243;28;20372;-64
2022/03/02 04:58:20;;;;;;;41.20;29.77;;;6.90;99.90;;;;;;4986399;28;20063;-66
2022/03/02 05:00:47;;;;;;;44.67;28.23;;;6.90;99.90;;;;;;4986871;28;20055;-62
2022/03/02 05:03:15;;;;;;;38.78;27.55;;;6.90;99.90;;;;;;4987548;28;20047;-64
2022/03/02 05:05:42;;;;;;;39.95;25.23;;;6.90;99.90;;;;;;4959611;28;20549;-66
2022/03/02 05:08:09;;;;;;;42.20;28.15;;;7.00;99.90;;;;;;4962166;28;20055;-65
2022/03/02 05:10:36;;;;;;;39.47;26.75;;;6.90;99.90;;;;;;4986571;28;20047;-64
2022/03/02 05:13:03;;;;;;;40.72;28.55;;;7.00;99.90;;;;;;4960925;28;20046;-64
2022/03/02 05:15:30;;;;;;;39.15;29.48;;;7.00;99.90;;;;;;4972297;28;20081;-65
2022/03/02 05:17:58;;;;;;;39.22;28.35;;;7.00;99.90;;;;;;4986661;28;20058;-64
2022/03/02 05:20:25;;;;;;;37.85;26.77;;;7.00;99.90;;;;;;4966383;28;20427;-64
2022/03/02 05:22:52;;;;;;;35.70;25.63;;;6.90;99.90;;;;;;4944651;28;20525;-64
2022/03/02 05:25:19;;;;;;;33.08;25.20;;;6.90;99.90;;;;;;4970528;28;20059;-66
2022/03/02 05:27:46;;;;;;;40.67;29.00;;;6.90;99.90;;;;;;4987515;28;20491;-66
2022/03/02 05:30:16;;;;;;;38.88;27.10;;;7.00;99.90;;;;;;4947501;29;20066;-64
2022/03/02 05:32:43;;;;;;;35.08;24.70;;;7.00;99.90;;;;;;4956425;28;20048;-64
2022/03/02 05:35:10;;;;;;;43.13;26.05;;;7.00;99.90;;;;;;4969816;28;20455;-65
2022/03/02 05:37:42;;;;;;;34.47;24.52;;;6.90;99.90;;;;;;4960339;28;20043;-64
2022/03/02 05:40:14;;;;;;;38.58;25.65;;;6.90;99.90;;;;;;4957235;28;20043;-65
2022/03/02 05:42:42;;;;;;;38.38;25.33;;;6.90;99.90;;;;;;4969545;28;20059;-64
2022/03/02 05:45:10;;;;;;;34.47;24.95;;;6.90;99.90;;;;;;4985850;28;20078;-64
2022/03/02 05:47:38;;;;;;;33.20;23.35;;;6.90;99.90;;;;;;4964105;28;20131;-64
2022/03/02 05:50:06;;;;;;;33.53;24.08;;;6.90;99.90;;;;;;4959840;28;20051;-65
2022/03/02 05:52:33;;;;;;;35.15;24.17;;;6.80;99.90;;;;;;4972035;28;20477;-65
2022/03/02 05:55:00;;;;;;;31.80;23.38;;;6.80;99.90;;;;;;4971148;28;20069;-64
2022/03/02 05:57:27;;;;;;;33.70;23.27;;;6.80;99.90;;;;;;4947713;28;20120;-65
2022/03/02 05:59:54;;;;;;;31.42;22.15;;;6.80;99.90;;;;;;4973878;28;20396;-65
2022/03/02 06:02:21;;;;;;;35.08;24.58;;;6.80;99.90;;;;;;4984816;28;20491;-64
2022/03/02 06:04:48;;;;;;;31.45;23.17;;;6.80;99.90;;;;;;4955234;28;20051;-64
2022/03/02 06:07:15;;;;;;;38.00;24.65;;;6.80;99.90;;;;;;4963426;28;20043;-65
2022/03/02 06:09:43;;;;;;;34.22;24.25;;;6.80;99.90;;;;;;4960256;28;20115;-64
2022/03/02 06:12:11;;;;;;;33.92;24.42;;;6.80;99.90;;;;;;4971712;28;20794;-64
2022/03/02 06:14:40;;;;;;;31.85;22.00;;;6.80;99.90;;;;;;4969473;28;20050;-65
2022/03/02 06:17:09;;;;;;;31.48;22.45;;;6.80;99.90;;;;;;4963958;28;20043;-65
2022/03/02 06:19:37;;;;;;;34.88;22.85;;;6.80;99.90;;;;;;4984624;28;20047;-64
2022/03/02 06:22:05;;;;;;;33.03;23.02;;;6.70;99.90;;;;;;4984772;28;20040;-64
2022/03/02 06:24:32;;;;;;;32.13;22.23;;;6.70;99.90;;;;;;4958670;28;20050;-64
2022/03/02 06:26:59;;;;;;;31.95;21.33;;;6.70;99.90;;;;;;4963323;28;20043;-65
2022/03/02 06:29:26;;;;;;;30.13;21.45;;;6.70;99.90;;;;;;4984242;28;20078;-64
2022/03/02 06:31:53;;;;;;;31.60;22.70;;;6.70;99.90;;;;;;4968546;28;20561;-65
2022/03/02 06:34:20;;;;;;;31.73;22.88;;;6.70;99.90;;;;;;4959708;28;20051;-64
2022/03/02 06:36:51;;;;;;;35.08;24.67;;;6.70;99.90;;;;;;4966444;28;20051;-65
2022/03/02 06:39:19;;;;;;;33.45;20.80;;;6.70;99.90;;;;;;4962858;28;20066;-64
2022/03/02 06:42:05;;;;;;;35.03;21.70;;;6.70;99.90;;;;;;4962134;28;20051;-71
2022/03/02 06:44:37;;;;;;;66.60;43.78;;;6.70;99.90;;;;;;4960461;28;20055;-66
2022/03/02 06:47:06;;;;;;;44.03;30.30;;;6.80;99.90;;;;;;4985046;28;20410;-68
2022/03/02 06:49:55;;;;;;;38.38;26.55;;;6.80;99.90;;;;;;4968083;28;20074;-71
2022/03/02 06:52:35;;;;;;;37.20;25.30;;;6.80;99.90;;;;;;4955177;28;20058;-73
2022/03/02 06:55:10;;;;;;;33.88;25.25;;;6.80;99.90;;;;;;4981669;28;20051;-69
2022/03/02 06:57:38;;;;;;;37.33;27.33;;;6.80;99.90;;;;;;4947421;28;20053;-70
2022/03/02 07:00:14;;;;;;;37.42;26.05;;;6.80;99.90;;;;;;4966404;28;20074;-69
2022/03/02 07:02:48;;;;;;;39.15;26.65;;;6.80;99.90;;;;;;4952301;29;20051;-70
2022/03/02 07:05:16;;;;;;;40.78;27.83;;;6.80;99.90;;;;;;4981100;28;20055;-67
2022/03/02 07:07:43;;;;;;;38.58;28.00;;;6.80;99.90;;;;;;4950181;29;20058;-63
2022/03/02 07:10:10;;;;;;;48.75;34.38;;;6.80;99.90;;;;;;4937365;28;20055;-63
2022/03/02 07:12:38;;;;;;;39.35;31.17;;;6.90;99.90;;;;;;4961023;28;20051;-64
2022/03/02 07:15:06;;;;;;;40.38;30.65;;;6.90;99.90;;;;;;4954243;28;20455;-65
2022/03/02 07:17:34;;;;;;;40.38;29.00;;;6.90;99.90;;;;;;4951755;29;20047;-66
2022/03/02 07:20:04;;;;;;;45.87;30.17;;;7.00;99.90;;;;;;4949501;29;20131;-64
2022/03/02 07:22:35;;;;;;;34.78;27.35;;;6.90;99.90;;;;;;4966070;28;20317;-64
2022/03/02 07:25:04;;;;;;;37.75;27.13;;;7.00;99.90;;;;;;4935238;29;20137;-64
2022/03/02 07:27:31;;;;;;;33.38;25.13;;;6.90;99.90;;;;;;4951286;28;20101;-67
2022/03/02 07:29:58;;;;;;;35.10;23.85;;;6.90;99.90;;;;;;4934559;29;20055;-66
2022/03/02 07:32:30;;;;;;;36.28;25.02;;;6.90;99.90;;;;;;4954674;28;20380;-66
2022/03/02 07:34:58;;;;;;;33.13;21.70;;;6.90;99.90;;;;;;4941232;28;20482;-66
2022/03/02 07:37:26;;;;;;;28.52;19.55;;;6.90;99.90;;;;;;4936271;29;20070;-67
2022/03/02 07:39:53;;;;;;;28.60;22.88;;;6.90;99.90;;;;;;4954968;28;20054;-67
2022/03/02 07:42:22;;;;;;;28.88;21.23;;;6.90;99.90;;;;;;4947931;28;20081;-67
2022/03/02 07:44:52;;;;;;;28.52;21.00;;;6.90;99.90;;;;;;4968115;28;20077;-67
2022/03/02 07:47:19;;;;;;;27.83;20.00;;;6.90;99.90;;;;;;4957375;28;20047;-67
2022/03/02 07:49:47;;;;;;;28.40;19.65;;;6.90;99.90;;;;;;4963667;28;20043;-67
2022/03/02 07:52:14;;;;;;;27.35;19.35;;;6.90;99.90;;;;;;4959589;28;20449;-66
2022/03/02 07:54:42;;;;;;;27.65;19.23;;;6.80;99.90;;;;;;4964781;28;20490;-67
2022/03/02 07:57:13;;;;;;;25.42;19.20;;;6.80;99.90;;;;;;4979314;28;20739;-69
2022/03/02 07:59:43;;;;;;;23.15;18.08;;;6.80;99.90;;;;;;4944259;28;20131;-64
2022/03/02 08:02:12;;;;;;;26.70;20.13;;;6.90;99.90;;;;;;4969754;28;20483;-69
2022/03/02 08:04:45;;;;;;;27.33;18.90;;;6.90;99.90;;;;;;4965359;28;20279;-67
2022/03/02 08:07:12;;;;;;;32.50;25.88;;;6.80;99.90;;;;;;4959016;28;20828;-69
2022/03/02 08:09:40;;;;;;;27.80;20.88;;;6.90;99.90;;;;;;4944976;29;20130;-68
2022/03/02 08:12:08;;;;;;;27.58;18.35;;;6.80;99.90;;;;;;4981882;28;20043;-68
2022/03/02 08:14:38;;;;;;;28.27;20.38;;;6.90;99.90;;;;;;4954836;28;20130;-67
2022/03/02 08:17:05;;;;;;;26.08;18.70;;;6.80;99.90;;;;;;4980319;28;20043;-67
2022/03/02 08:19:32;;;;;;;25.33;19.95;;;6.80;99.90;;;;;;4949705;29;20086;-66
2022/03/02 08:22:04;;;;;;;24.45;17.83;;;6.80;99.90;;;;;;4950354;28;20050;-67
2022/03/02 08:24:32;;;;;;;26.52;19.35;;;6.90;99.90;;;;;;4950362;28;20079;-66
2022/03/02 08:27:00;;;;;;;27.35;18.75;;;6.80;99.90;;;;;;4930535;29;20127;-66
2022/03/02 08:29:38;;;;;;;22.92;18.20;;;6.80;99.90;;;;;;4950832;28;20542;-76
2022/03/02 08:32:05;;;;;;;26.80;19.00;;;6.80;99.90;;;;;;4950506;29;20087;-71
2022/03/02 08:34:37;;;;;;;26.05;17.38;;;6.80;99.90;;;;;;4933409;29;20061;-65
2022/03/02 08:37:04;;;;;;;23.40;17.05;;;6.70;99.90;;;;;;4951136;29;20091;-74
2022/03/02 08:39:40;;;;;;;24.83;18.00;;;6.70;99.90;;;;;;4952728;29;20044;-69
2022/03/02 08:42:07;;;;;;;25.38;17.77;;;6.70;99.90;;;;;;4950948;29;20055;-70
2022/03/02 08:44:35;;;;;;;22.45;16.75;;;6.70;99.90;;;;;;4951793;28;20043;-69
2022/03/02 08:47:02;;;;;;;25.67;18.70;;;6.70;99.90;;;;;;4936193;28;20558;-72
2022/03/02 08:49:29;;;;;;;41.08;27.42;;;6.70;99.90;;;;;;4971628;28;20082;-70
2022/03/02 08:51:56;;;;;;;29.80;19.40;;;6.80;99.90;;;;;;4973633;28;20090;-72
2022/03/02 08:54:23;;;;;;;25.83;19.83;;;6.80;99.90;;;;;;4958774;28;20051;-74
2022/03/02 08:56:51;;;;;;;25.50;19.92;;;6.80;99.90;;;;;;4951662;28;20055;-71
2022/03/02 08:59:18;;;;;;;24.42;18.80;;;6.80;99.90;;;;;;4971630;28;20050;-71
2022/03/02 09:01:52;;;;;;;28.30;20.38;;;6.80;99.90;;;;;;4971408;28;20139;-71
2022/03/02 09:04:19;;;;;;;24.52;18.17;;;6.80;99.90;;;;;;4955878;28;20106;-67
2022/03/02 09:06:46;;;;;;;25.77;17.95;;;6.70;99.90;;;;;;4970561;28;20087;-64
2022/03/02 09:09:13;;;;;;;23.75;16.80;;;6.70;99.90;;;;;;4955545;28;20051;-64
2022/03/02 09:11:42;;;;;;;23.75;17.63;;;6.80;99.90;;;;;;4934522;29;20116;-67
2022/03/02 09:14:09;;;;;;;28.23;19.27;;;6.80;99.90;;;;;;4973778;28;20061;-67
2022/03/02 09:16:39;;;;;;;24.73;16.95;;;6.80;99.90;;;;;;4970483;28;20094;-65
2022/03/02 09:19:07;;;;;;;22.45;16.90;;;6.70;99.90;;;;;;4974232;28;20056;-66
2022/03/02 09:21:34;;;;;;;23.25;16.90;;;6.70;99.90;;;;;;4970750;28;20122;-66
2022/03/02 09:24:01;;;;;;;23.00;18.25;;;6.80;99.90;;;;;;4972154;28;20054;-68
2022/03/02 09:26:28;;;;;;;24.40;17.27;;;6.80;99.90;;;;;;4938645;29;20055;-68
2022/03/02 09:28:55;;;;;;;25.30;17.40;;;6.80;99.90;;;;;;4936384;29;20048;-66
2022/03/02 09:31:22;;;;;;;47.15;34.00;;;6.80;99.90;;;;;;4955600;28;20126;-66
2022/03/02 09:33:58;;;;;;;33.80;23.02;;;6.80;99.90;;;;;;4957105;28;20048;-67
2022/03/02 09:36:26;;;;;;;26.10;18.85;;;6.80;99.90;;;;;;4969100;28;20050;-67
2022/03/02 09:38:53;;;;;;;24.88;18.50;;;6.90;99.90;;;;;;4985332;28;20483;-70
2022/03/02 09:41:49;;;;;;;23.45;18.50;;;6.90;99.90;;;;;;4953075;28;20094;-66
2022/03/02 09:44:20;;;;;;;25.42;19.25;;;6.90;99.90;;;;;;4936477;29;20046;-70
2022/03/02 09:46:55;;;;;;;27.63;18.85;;;6.90;99.90;;;;;;4938439;29;20047;-69
2022/03/02 09:49:24;;;;;;;27.00;19.25;;;6.90;99.90;;;;;;4953777;29;20090;-69
2022/03/02 09:51:52;;;;;;;28.85;19.90;;;7.00;99.90;;;;;;4953805;29;20455;-69
2022/03/02 09:54:21;;;;;;;29.15;19.95;;;7.00;99.90;;;;;;4937061;29;20051;-69
2022/03/02 09:56:51;;;;;;;25.67;18.33;;;7.00;99.90;;;;;;4954150;29;20102;-69
2022/03/02 09:59:18;;;;;;;23.73;18.63;;;7.00;99.90;;;;;;4953087;29;20102;-67
2022/03/02 10:01:48;;;;;;;21.58;16.67;;;7.00;99.90;;;;;;4954238;28;20044;-71
2022/03/02 10:04:22;;;;;;;25.90;18.27;;;7.00;99.90;;;;;;4934636;29;20440;-69
2022/03/02 10:06:50;;;;;;;22.30;16.70;;;7.00;99.90;;;;;;4935219;29;20134;-70
2022/03/02 10:09:23;;;;;;;24.60;17.73;;;7.00;99.90;;;;;;4949167;29;20083;-71
2022/03/02 10:11:50;;;;;;;21.02;16.95;;;7.10;99.90;;;;;;4953494;29;20047;-71
2022/03/02 10:14:21;;;;;;;26.23;18.63;;;7.10;99.90;;;;;;4953074;29;20130;-66
2022/03/02 10:16:51;;;;;;;25.23;18.42;;;7.10;99.90;;;;;;4952780;29;20058;-68
2022/03/02 10:19:36;;;;;;;25.17;17.13;;;7.10;99.90;;;;;;4934712;29;20048;-68
2022/03/02 10:22:06;;;;;;;22.75;17.63;;;7.10;99.90;;;;;;4919928;29;20142;-70
2022/03/02 10:24:34;;;;;;;21.52;16.75;;;7.10;99.90;;;;;;4954854;28;20051;-70
2022/03/02 10:27:04;;;;;;;23.23;18.02;;;7.10;99.90;;;;;;4961432;28;20057;-72
2022/03/02 10:29:35;;;;;;;22.85;16.67;;;7.10;99.90;;;;;;4970281;28;20075;-71
2022/03/02 10:32:09;;;;;;;25.83;16.55;;;7.10;99.90;;;;;;4968790;28;20901;-70
2022/03/02 10:34:37;;;;;;;22.10;16.75;;;7.10;99.90;;;;;;4953177;29;20098;-71
2022/03/02 10:37:13;;;;;;;46.88;33.55;;;7.10;99.90;;;;;;4952541;29;20086;-67
2022/03/02 10:39:52;;;;;;;25.88;20.20;;;7.10;99.90;;;;;;4954314;28;20047;-67
2022/03/02 10:42:28;;;;;;;25.50;18.20;;;7.20;99.90;;;;;;4949991;29;20388;-64
2022/03/02 10:45:26;;;;;;;25.60;17.65;;;7.20;99.90;;;;;;4947336;29;20082;-69
2022/03/02 10:48:14;;;;;;;23.93;16.63;;;7.20;99.90;;;;;;4952834;29;20495;-66
2022/03/02 10:50:42;;;;;;;22.27;18.02;;;7.10;99.90;;;;;;4937301;29;20053;-64
2022/03/02 10:53:13;;;;;;;23.73;17.63;;;7.10;99.90;;;;;;4936694;29;20447;-65
2022/03/02 10:55:45;;;;;;;26.98;18.95;;;7.10;99.90;;;;;;4937257;29;20054;-64
2022/03/02 10:58:19;;;;;;;25.70;17.20;;;7.10;99.90;;;;;;4951943;29;20487;-65
2022/03/02 11:00:46;;;;;;;28.20;18.63;;;7.10;99.90;;;;;;4933766;29;20051;-65
2022/03/02 11:03:14;;;;;;;21.17;16.48;;;7.20;99.90;;;;;;4953164;29;20143;-64
2022/03/02 11:05:41;;;;;;;22.00;16.33;;;7.10;99.90;;;;;;4950305;29;20102;-65
2022/03/02 11:08:08;;;;;;;23.95;16.65;;;7.10;99.90;;;;;;4936247;29;20138;-65
2022/03/02 11:10:37;;;;;;;19.80;16.25;;;7.10;99.90;;;;;;4953180;29;20051;-64
2022/03/02 11:13:12;;;;;;;22.85;15.15;;;7.10;99.90;;;;;;4951616;28;20570;-64
2022/03/02 11:15:52;;;;;;;23.25;16.50;;;7.20;99.90;;;;;;4952153;29;20091;-65
2022/03/02 11:18:31;;;;;;;20.60;14.45;;;7.20;99.90;;;;;;4952798;29;20452;-64
2022/03/02 11:21:08;;;;;;;20.70;15.20;;;7.20;99.90;;;;;;4948906;29;20080;-64
2022/03/02 11:23:49;;;;;;;18.83;13.95;;;7.20;99.90;;;;;;4936828;29;20057;-64
2022/03/02 11:26:17;;;;;;;21.42;16.30;;;7.20;99.90;;;;;;4951318;29;20105;-65
2022/03/02 11:28:49;;;;;;;18.30;13.70;;;7.20;99.90;;;;;;4936076;29;20047;-65
2022/03/02 11:31:26;;;;;;;16.88;13.43;;;7.20;99.90;;;;;;4935717;29;20051;-65
2022/03/02 11:34:15;;;;;;;15.73;12.10;;;7.30;99.90;;;;;;4972506;28;20051;-65
2022/03/02 11:36:45;;;;;;;19.45;13.48;;;7.30;99.90;;;;;;4952206;29;20051;-71
2022/03/02 11:39:13;;;;;;;16.95;13.65;;;7.40;99.90;;;;;;4936875;29;20061;-64
2022/03/02 11:41:41;;;;;;;15.80;12.00;;;7.40;99.90;;;;;;4920093;29;20067;-65
2022/03/02 11:44:31;;;;;;;17.05;11.80;;;7.40;99.90;;;;;;4951583;29;20047;-65
2022/03/02 11:47:09;;;;;;;17.23;13.52;;;7.30;99.90;;;;;;4936466;29;20083;-64
2022/03/02 11:49:39;;;;;;;18.02;12.68;;;7.30;99.90;;;;;;4917293;29;20168;-64
2022/03/02 11:52:09;;;;;;;18.48;12.60;;;7.40;99.90;;;;;;4949726;29;20052;-64
2022/03/02 11:54:41;;;;;;;;;;;7.40;99.90;;;;;;4950064;29;20087;-65
2022/03/02 11:57:08;;;;;;;17.65;11.95;;;7.40;99.90;;;;;;4953182;28;19930;-65
2022/03/02 11:59:37;;;;;;;14.18;11.50;;;7.30;99.90;;;;;;4952083;28;20066;-69
2022/03/02 12:02:21;;;;;;;49.90;36.22;;;7.30;99.90;;;;;;4948034;29;20051;-68
2022/03/02 12:05:05;;;;;;;20.73;14.20;;;7.40;99.90;;;;;;4955860;28;20047;-71
2022/03/02 12:07:51;;;;;;;18.65;12.32;;;7.50;99.90;;;;;;4952339;28;20047;-76
2022/03/02 12:10:23;;;;;;;14.50;11.68;;;7.50;99.90;;;;;;4949932;29;20069;-71
2022/03/02 12:12:51;;;;;;;19.48;12.73;;;7.60;99.90;;;;;;4984593;28;20394;-69
2022/03/02 12:15:19;;;;;;;17.77;12.48;;;7.60;99.90;;;;;;4942094;28;20055;-71
2022/03/02 12:17:46;;;;;;;14.15;10.98;;;7.70;99.90;;;;;;4957397;28;20075;-71
2022/03/02 12:20:23;;;;;;;17.83;12.13;;;7.70;99.90;;;;;;4983079;28;20051;-67
2022/03/02 12:22:56;;;;;;;13.52;10.43;;;7.70;99.90;;;;;;4934957;28;20108;-70
2022/03/02 12:25:27;;;;;;;14.07;9.73;;;7.70;99.90;;;;;;4959875;28;20060;-68
2022/03/02 12:28:02;;;;;;;14.50;10.70;;;7.70;99.90;;;;;;4931995;28;20047;-67
2022/03/02 12:30:31;;;;;;;13.90;10.73;;;7.70;99.90;;;;;;4964861;28;20042;-68
2022/03/02 12:32:58;;;;;;;16.83;11.45;;;7.80;99.90;;;;;;4952737;29;20142;-69
2022/03/02 12:35:25;;;;;;;13.85;10.32;;;7.80;99.90;;;;;;4969190;28;20054;-68
2022/03/02 12:37:57;;;;;;;15.07;10.85;;;8.00;99.90;;;;;;4972627;28;20051;-67
2022/03/02 12:40:29;;;;;;;14.05;9.30;;;8.00;99.90;;;;;;4970501;28;20055;-68
2022/03/02 12:42:56;;;;;;;14.75;10.15;;;8.00;99.90;;;;;;4971222;28;20085;-68
2022/03/02 12:45:24;;;;;;;18.33;10.50;;;8.10;99.90;;;;;;4968716;28;20409;-68
2022/03/02 12:47:51;;;;;;;11.75;8.95;;;8.20;99.90;;;;;;4956734;28;20054;-67